Aérodrome :
LOGIN :

S'inscrire | Disclaimer

   EN    FR    IT 

 










Légende :    VFR   VFR Marginal   IFR   IFR Intensif   IFR Très Intensif
Visi : 
Plafond : 
>= 8 km
>= 3000ft
5 à 8 km
1000 à 3000 ft
1500m à 5 km
500 à 1000 ft
800 à 1500m
200 à 500 ft
< 800m
< 200 ft
Symboles :   Orages  Brouillard  Fortes neiges  Fortes précipitations  Vent > 20 kt
SIGMETs :   Divers  Orages  Givrage  Turbulence  Onde Orograph.  Cendres Volcan.






- Altitude de l'aérodrome : 782 ft
- Code IATA : BGY


LIME - Orio al Serio International - Bergamo

DERNIER METAR :
  • 230050Z VRB01KT 4000 BR NSC 11/11 Q1019 NOSIG

METARs EXPIRÉS :
  • 230020Z 34001KT 4000 BR NSC 12/11 Q1019 TEMPO 0800 FG
  • 222350Z VRB02KT 4000 BR NSC 11/11 Q1019 TEMPO 0800 FG
  • 222320Z VRB01KT 6000 SCT025 13/12 Q1019 BECMG 4000 BR
  • 222250Z 01004KT 6000 SCT020 13/11 Q1019 BECMG 4000 BR
  • 222220Z 02003KT 6000 SCT025 13/12 Q1019 BECMG 4000 BR

TAF TAF LIME
Valide du 23 à 00h jusqu'au 24 à 00h UTC


222300Z 2300/2324 VRB05KT 4000 BR NSC
TEMPO 2300/2302 0800 FG BKN003
BECMG 2306/2308 8000 FEW020
BECMG 2318/2320 3000 BR



MET'MAP, la Météo Aéronautique d'un coup d'oeil ! - Copyright ORBIFLY Décembre 2007 - Disclaimer

ORBIFLY MET'MAP TEAM :

Programmation & Développement : Alexandra Zaïnal
Sur une idée originale de : Baudouin d'Aumeries
Assistance à la programmation : Marc-Olivier Méhu
Soutien technique & logistique : Manuel Goepfert

Contact : metmap@orbifly.com




SOURCES & CREDITS :

   NOAA